Time;durP1;ratioP1;P1;durP2;ratioP2;P2;SDS_P1;SDS_P2;PMS_P1;PMS_P2;Temp;Humidity;BMP_temperature;BMP_pressure;BME280_temperature;BME280_humidity;BME280_pressure;Samples;Min_cycle;Max_cycle;Signal;HPM_P1;HPM_P2
2023/01/16 00:02:08;;;;;;;;;;;;;;;3.97;100.00;97733.84;4182783;34;19987;-74
2023/01/16 00:04:35;;;;;;;;;;;;;;;3.94;100.00;97734.31;4182467;34;19948;-73
2023/01/16 00:07:01;;;;;;;;;;;;;;;3.95;100.00;97727.13;4180729;34;19971;-74
2023/01/16 00:09:27;;;;;;;;;;;;;;;3.99;100.00;97729.06;4185782;34;20008;-74
2023/01/16 00:11:54;;;;;;;;;;;;;;;3.88;100.00;97726.44;4199315;34;19947;-74
2023/01/16 00:14:20;;;;;;;;;;;;;;;3.85;100.00;97719.75;4198841;34;19952;-73
2023/01/16 00:16:46;;;;;;;;;;;;;;;3.99;100.00;97726.41;4197552;34;19950;-73
2023/01/16 00:19:12;;;;;;;;;;;;;;;3.73;100.00;97705.69;4210668;34;19955;-74
2023/01/16 00:21:38;;;;;;;;;;;;;;;3.86;100.00;97721.37;4205935;34;19947;-74
2023/01/16 00:24:06;;;;;;;;;;;;;;;3.71;100.00;97724.56;4206008;34;20109;-74
2023/01/16 00:26:32;;;;;;;;;;;;;;;3.94;100.00;97726.31;4205062;34;19944;-74
2023/01/16 00:28:58;;;;;;;;;;;;;;;3.71;100.00;97723.75;4188968;34;19979;-73
2023/01/16 00:31:25;;;;;;;;;;;;;;;3.71;100.00;97723.75;4169276;34;19963;-73
2023/01/16 00:33:51;;;;;;;;;;;;;;;3.48;100.00;97720.13;4168277;34;19949;-74
2023/01/16 00:36:17;;;;;;;;;;;;;;;3.83;100.00;97721.84;4168708;34;19940;-74
2023/01/16 00:38:43;;;;;;;;;;;;;;;3.88;100.00;97729.94;4153240;34;19948;-74
2023/01/16 00:41:10;;;;;;;;;;;;;;;3.89;100.00;97726.22;4152825;34;19980;-73
2023/01/16 00:43:36;;;;;;;;;;;;;;;3.84;100.00;97734.09;4151085;34;19948;-74
2023/01/16 00:46:02;;;;;;;;;;;;;;;3.66;100.00;97721.78;4153835;34;19966;-74
2023/01/16 00:48:28;;;;;;;;;;;;;;;3.69;100.00;97725.84;4153516;34;20000;-73
2023/01/16 00:50:54;;;;;;;;;;;;;;;3.68;100.00;97729.53;4152050;34;19945;-74
2023/01/16 00:53:21;;;;;;;;;;;;;;;3.58;100.00;97725.62;4152949;34;20252;-73
2023/01/16 00:55:47;;;;;;;;;;;;;;;3.75;100.00;97735.53;4140679;34;19956;-74
2023/01/16 00:58:13;;;;;;;;;;;;;;;3.55;100.00;97726.09;4140358;34;19963;-73
2023/01/16 03:03:43;;;;;;;;;;;;;;;2.72;100.00;97669.59;4253042;33;19960;-74
2023/01/16 03:06:17;;;;;;;;;;;;;;;2.35;100.00;97678.59;4255652;33;19950;-73
2023/01/16 03:09:02;;;;;;;;;;;;;;;2.46;100.00;97676.19;4265803;33;20617;-74
2023/01/16 03:11:29;;;;;;;;;;;;;;;2.42;100.00;97662.53;4263855;33;19943;-74
2023/01/16 03:14:11;;;;;;;;;;;;;;;2.60;100.00;97666.13;4254791;33;19999;-74
2023/01/16 03:16:37;;;;;;;;;;;;;;;2.42;100.00;97653.75;4255701;33;19963;-73
2023/01/16 03:19:13;;;;;;;;;;;;;;;2.52;100.00;97661.97;4255554;33;20026;-73
2023/01/16 03:22:02;;;;;;;;;;;;;;;2.45;100.00;97654.09;4252905;33;19945;-72
2023/01/16 03:24:47;;;;;;;;;;;;;;;2.53;100.00;97667.03;4254973;33;19966;-73
2023/01/16 03:27:32;;;;;;;;;;;;;;;2.37;100.00;97657.09;4252652;33;19953;-72
2023/01/16 03:30:10;;;;;;;;;;;;;;;2.29;100.00;97657.47;4263427;33;20031;-73
2023/01/16 03:32:40;;;;;;;;;;;;;;;2.47;100.00;97662.69;4237754;33;19979;-72
2023/01/16 03:35:14;;;;;;;;;;;;;;;2.52;100.00;97670.75;4238178;33;19958;-73
2023/01/16 03:37:44;;;;;;;;;;;;;;;2.69;100.00;97664.75;4237432;33;20406;-73
2023/01/16 03:40:13;;;;;;;;;;;;;;;2.38;100.00;97658.75;4238555;33;19950;-74
2023/01/16 03:42:43;;;;;;;;;;;;;;;2.56;100.00;97654.34;4236911;33;19954;-72
2023/01/16 03:45:17;;;;;;;;;;;;;;;2.15;100.00;97655.03;4237653;33;19973;-73
2023/01/16 03:47:49;;;;;;;;;;;;;;;2.03;100.00;97645.41;4238767;33;19950;-73
2023/01/16 03:50:17;;;;;;;;;;;;;;;1.99;100.00;97650.34;4238603;33;19946;-73
2023/01/16 03:52:45;;;;;;;;;;;;;;;2.36;100.00;97639.53;4236813;33;19947;-72
2023/01/16 03:55:11;;;;;;;;;;;;;;;2.41;100.00;97646.81;4238274;33;19950;-74
2023/01/16 03:57:40;;;;;;;;;;;;;;;2.28;100.00;97643.38;4238274;33;19956;-73
2023/01/16 04:00:08;;;;;;;;;;;;;;;2.41;100.00;97655.63;4240115;33;20375;-73
2023/01/16 04:02:44;;;;;;;;;;;;;;;2.35;100.00;97654.69;4252658;33;19981;-72
2023/01/16 04:05:10;;;;;;;;;;;;;;;1.98;100.00;97648.75;4255370;33;20000;-73
2023/01/16 04:07:37;;;;;;;;;;;;;;;2.38;100.00;97656.09;4264016;33;20344;-73
2023/01/16 04:10:05;;;;;;;;;;;;;;;2.25;100.00;97659.78;4269037;33;19973;-73
2023/01/16 04:12:37;;;;;;;;;;;;;;;2.00;100.00;97657.28;4266232;33;19970;-73
2023/01/16 04:15:07;;;;;;;;;;;;;;;2.09;100.00;97658.59;4254695;33;20863;-73
2023/01/16 04:17:37;;;;;;;;;;;;;;;2.22;100.00;97654.09;4254924;33;19965;-73
2023/01/16 04:20:05;;;;;;;;;;;;;;;2.06;100.00;97642.28;4252735;33;19959;-73
2023/01/16 04:22:31;;;;;;;;;;;;;;;1.83;100.00;97646.50;4250261;33;19942;-73
2023/01/16 04:24:59;;;;;;;;;;;;;;;2.08;100.00;97649.00;4250007;33;20039;-73
2023/01/16 04:27:25;;;;;;;;;;;;;;;1.81;100.00;97652.06;4250056;33;20002;-73
2023/01/16 04:29:57;;;;;;;;;;;;;;;1.85;100.00;97651.59;4251470;33;19985;-73
2023/01/16 04:32:24;;;;;;;;;;;;;;;1.92;100.00;97654.97;4238260;33;19939;-74
2023/01/16 04:34:50;;;;;;;;;;;;;;;1.98;100.00;97656.72;4234041;33;20371;-72
2023/01/16 04:37:17;;;;;;;;;;;;;;;1.97;100.00;97644.47;4209472;34;19947;-73
2023/01/16 04:39:44;;;;;;;;;;;;;;;1.91;100.00;97648.03;4209578;34;19934;-74
2023/01/16 04:42:10;;;;;;;;;;;;;;;1.97;100.00;97647.13;4210423;34;19953;-73
2023/01/16 04:44:36;;;;;;;;;;;;;;;2.06;100.00;97640.47;4224138;34;19950;-73
2023/01/16 04:47:03;;;;;;;;;;;;;;;2.09;100.00;97641.81;4217945;34;19943;-73
2023/01/16 04:49:29;;;;;;;;;;;;;;;1.96;100.00;97632.22;4214970;34;20622;-73
2023/01/16 04:51:55;;;;;;;;;;;;;;;2.01;100.00;97637.69;4223423;34;19938;-73
2023/01/16 04:54:22;;;;;;;;;;;;;;;1.92;100.00;97644.34;4223291;34;19980;-73
2023/01/16 04:56:48;;;;;;;;;;;;;;;1.92;100.00;97647.00;4226137;33;19951;-72
2023/01/16 04:59:20;;;;;;;;;;;;;;;1.93;100.00;97640.66;4227347;34;20301;-73
2023/01/16 05:01:47;;;;;;;;;;;;;;;1.97;100.00;97641.81;4227348;34;19960;-73
2023/01/16 05:04:14;;;;;;;;;;;;;;;1.98;100.00;97643.44;4228425;33;19968;-72
2023/01/16 05:06:46;;;;;;;;;;;;;;;1.78;100.00;97633.91;4228691;33;19955;-73
2023/01/16 05:09:13;;;;;;;;;;;;;;;1.63;100.00;97636.22;4262838;33;20292;-72
2023/01/16 05:11:42;;;;;;;;;;;;;;;1.69;100.00;97635.31;4268494;33;19986;-73
2023/01/16 05:14:14;;;;;;;;;;;;;;;1.72;100.00;97632.16;4259779;33;19955;-73
2023/01/16 05:16:43;;;;;;;;;;;;;;;1.75;100.00;97629.06;4265227;33;19956;-73
2023/01/16 05:19:10;;;;;;;;;;;;;;;1.89;100.00;97634.19;4268825;33;19957;-72
2023/01/16 05:21:38;;;;;;;;;;;;;;;1.63;100.00;97628.25;4263236;33;19946;-73
2023/01/16 05:24:07;;;;;;;;;;;;;;;1.55;100.00;97633.88;4263768;33;19946;-74
2023/01/16 05:26:34;;;;;;;;;;;;;;;1.65;100.00;97623.50;4271704;33;19941;-73
2023/01/16 05:29:00;;;;;;;;;;;;;;;1.63;100.00;97623.75;4266030;33;20312;-73
2023/01/16 05:31:29;;;;;;;;;;;;;;;1.88;100.00;97616.63;4271250;33;19967;-72
2023/01/16 05:33:59;;;;;;;;;;;;;;;1.63;100.00;97625.59;4273811;33;19967;-73
2023/01/16 05:36:31;;;;;;;;;;;;;;;1.79;100.00;97606.34;4272972;33;19953;-73
2023/01/16 05:39:06;;;;;;;;;;;;;;;1.73;100.00;97604.59;4268724;33;19968;-73
2023/01/16 05:41:39;;;;;;;;;;;;;;;1.61;100.00;97596.62;4272030;33;20008;-73
2023/01/16 05:44:05;;;;;;;;;;;;;;;1.70;100.00;97583.84;4271146;33;19983;-73
2023/01/16 05:46:31;;;;;;;;;;;;;;;1.81;100.00;97595.50;4272711;33;19969;-73
2023/01/16 05:48:57;;;;;;;;;;;;;;;1.59;100.00;97592.56;4268418;33;19993;-72
2023/01/16 05:51:23;;;;;;;;;;;;;;;1.50;100.00;97600.06;4267020;33;20300;-72
2023/01/16 05:53:50;;;;;;;;;;;;;;;1.75;100.00;97599.87;4270992;33;19950;-73
2023/01/16 05:56:23;;;;;;;;;;;;;;;1.81;100.00;97592.84;4270717;33;19976;-72
2023/01/16 05:58:49;;;;;;;;;;;;;;;1.85;100.00;97590.56;4257711;33;19957;-73
2023/01/16 06:01:15;;;;;;;;;;;;;;;1.57;100.00;97579.53;4254242;33;19988;-73
2023/01/16 06:03:42;;;;;;;;;;;;;;;1.77;100.00;97595.16;4251917;33;19946;-72
2023/01/16 06:06:08;;;;;;;;;;;;;;;1.76;100.00;97590.09;4254077;33;20012;-73
2023/01/16 06:08:34;;;;;;;;;;;;;;;1.63;100.00;97583.13;4253250;33;19950;-73
2023/01/16 06:11:00;;;;;;;;;;;;;;;1.68;100.00;97591.22;4225362;33;20342;-73
2023/01/16 06:13:27;;;;;;;;;;;;;;;1.69;100.00;97582.25;4225733;34;19947;-75
2023/01/16 06:15:53;;;;;;;;;;;;;;;1.80;100.00;97589.41;4222215;34;19976;-76
2023/01/16 06:18:19;;;;;;;;;;;;;;;1.76;100.00;97582.94;4225801;34;19951;-76
2023/01/16 06:20:45;;;;;;;;;;;;;;;1.62;100.00;97592.13;4225713;34;19950;-75
2023/01/16 06:23:11;;;;;;;;;;;;;;;1.75;100.00;97591.91;4225321;34;20346;-75
2023/01/16 06:25:38;;;;;;;;;;;;;;;1.81;100.00;97585.69;4224699;34;19986;-75
2023/01/16 06:28:04;;;;;;;;;;;;;;;1.74;100.00;97585.00;4222961;34;19950;-76
2023/01/16 06:30:30;;;;;;;;;;;;;;;1.88;100.00;97579.47;4238427;33;20046;-75
2023/01/16 06:32:56;;;;;;;;;;;;;;;1.89;100.00;97575.81;4239531;33;19964;-75
2023/01/16 06:35:22;;;;;;;;;;;;;;;1.76;100.00;97572.31;4245818;33;20353;-76
2023/01/16 06:37:48;;;;;;;;;;;;;;;2.21;100.00;97583.44;4211514;34;19950;-76
2023/01/16 06:40:15;;;;;;;;;;;;;;;1.93;100.00;97576.94;4209432;34;20023;-75
2023/01/16 06:42:41;;;;;;;;;;;;;;;1.98;100.00;97585.84;4232733;33;19962;-76
2023/01/16 06:45:07;;;;;;;;;;;;;;;2.01;100.00;97573.97;4227986;33;20052;-75
2023/01/16 06:47:34;;;;;;;;;;;;;;;1.97;100.00;97580.75;4239624;33;20300;-76
2023/01/16 06:50:00;;;;;;;;;;;;;;;1.97;100.00;97578.09;4238957;33;20099;-75
2023/01/16 06:52:26;;;;;;;;;;;;;;;1.90;100.00;97572.09;4237464;33;20288;-76
2023/01/16 06:54:53;;;;;;;;;;;;;;;2.03;100.00;97565.75;4224848;34;19950;-75
2023/01/16 06:57:19;;;;;;;;;;;;;;;1.90;100.00;97566.78;4211530;34;19958;-75
2023/01/16 06:59:45;;;;;;;;;;;;;;;2.05;100.00;97561.84;4199016;34;20011;-75
2023/01/16 07:02:11;;;;;;;;;;;;;;;1.91;100.00;97563.09;4210120;34;20348;-76
2023/01/16 07:04:37;;;;;;;;;;;;;;;2.12;100.00;97567.84;4209187;34;19986;-76
2023/01/16 07:07:04;;;;;;;;;;;;;;;2.07;100.00;97572.22;4210316;34;19958;-75
2023/01/16 07:09:30;;;;;;;;;;;;;;;2.16;100.00;97574.31;4248848;33;19961;-76
2023/01/16 07:11:56;;;;;;;;;;;;;;;2.16;100.00;97561.03;4259812;33;19996;-76
2023/01/16 07:22:40;;;;;;;;;;;;;;;1.88;100.00;97568.84;4262889;33;20024;-76
2023/01/16 07:25:12;;;;;;;;;;;;;;;2.11;100.00;97579.50;4253024;33;19956;-75
2023/01/16 07:27:39;;;;;;;;;;;;;;;2.09;100.00;97570.13;4255296;33;19946;-75
2023/01/16 07:30:07;;;;;;;;;;;;;;;2.20;100.00;97568.53;4261946;33;19949;-74
2023/01/16 07:32:33;;;;;;;;;;;;;;;2.14;100.00;97573.72;4250508;33;20057;-76
2023/01/16 07:34:59;;;;;;;;;;;;;;;2.21;100.00;97557.69;4253161;33;19948;-75
2023/01/16 07:37:25;;;;;;;;;;;;;;;2.39;100.00;97554.06;4252756;33;19948;-75
2023/01/16 07:39:51;;;;;;;;;;;;;;;2.26;100.00;97554.34;4251953;33;19958;-76
2023/01/16 07:42:18;;;;;;;;;;;;;;;2.20;100.00;97541.97;4251924;33;20010;-74
2023/01/16 07:44:44;;;;;;;;;;;;;;;2.30;100.00;97560.81;4251657;33;20296;-75
2023/01/16 07:47:12;;;;;;;;;;;;;;;2.31;100.00;97543.81;4251901;33;19965;-75
2023/01/16 07:49:38;;;;;;;;;;;;;;;2.51;100.00;97536.28;4252226;33;20355;-73
2023/01/16 07:52:05;;;;;;;;;;;;;;;2.37;100.00;97543.69;4251688;33;20332;-73
2023/01/16 07:54:31;;;;;;;;;;;;;;;2.40;100.00;97545.06;4248257;33;19954;-75
2023/01/16 07:56:57;;;;;;;;;;;;;;;2.21;100.00;97543.59;4254169;33;20082;-76
2023/01/16 07:59:23;;;;;;;;;;;;;;;2.44;100.00;97532.13;4252409;33;19939;-74
2023/01/16 08:01:50;;;;;;;;;;;;;;;2.37;100.00;97537.56;4253203;33;20341;-74
2023/01/16 08:04:16;;;;;;;;;;;;;;;2.51;100.00;97538.94;4251971;33;20371;-75
2023/01/16 08:06:44;;;;;;;;;;;;;;;2.40;100.00;97534.44;4250171;33;19949;-74
2023/01/16 08:09:11;;;;;;;;;;;;;;;2.62;100.00;97523.22;4252626;33;19954;-75
2023/01/16 08:11:46;;;;;;;;;;;;;;;2.59;100.00;97523.69;4266486;33;19985;-76
2023/01/16 08:14:13;;;;;;;;;;;;;;;2.65;100.00;97514.75;4266858;33;20338;-75
2023/01/16 08:16:40;;;;;;;;;;;;;;;2.72;100.00;97520.75;4263245;33;19953;-75
2023/01/16 08:19:06;;;;;;;;;;;;;;;2.48;100.00;97518.16;4265775;33;19964;-75
2023/01/16 08:21:32;;;;;;;;;;;;;;;2.63;100.00;97522.97;4265699;33;20323;-75
2023/01/16 08:23:59;;;;;;;;;;;;;;;2.91;100.00;97513.41;4265494;33;20322;-74
2023/01/16 08:26:25;;;;;;;;;;;;;;;2.74;100.00;97513.34;4254325;33;19950;-75
2023/01/16 08:28:52;;;;;;;;;;;;;;;2.72;100.00;97515.44;4251637;33;19954;-76
2023/01/16 08:31:19;;;;;;;;;;;;;;;2.81;100.00;97508.69;4250335;33;20024;-75
2023/01/16 08:33:46;;;;;;;;;;;;;;;2.76;100.00;97490.00;4250527;33;20263;-76
2023/01/16 08:36:13;;;;;;;;;;;;;;;2.85;100.00;97491.22;4250364;33;19956;-76
2023/01/16 08:38:39;;;;;;;;;;;;;;;3.00;100.00;97500.53;4252120;33;19942;-75
2023/01/16 08:51:21;;;;;;;;;;;;;;;2.64;100.00;97502.53;4249468;33;19953;-74
2023/01/16 08:52:08;;;;;;;;;;;;;;;2.53;100.00;97496.97;4257721;33;20025;-75
2023/01/16 08:54:34;;;;;;;;;;;;;;;2.90;100.00;97486.03;4248796;33;19942;-74
2023/01/16 08:57:00;;;;;;;;;;;;;;;3.19;100.00;97488.66;4265295;33;20173;-74
2023/01/16 08:59:32;;;;;;;;;;;;;;;2.52;100.00;97495.38;4263836;33;19960;-75
2023/01/16 09:02:04;;;;;;;;;;;;;;;3.06;100.00;97483.63;4264050;33;19967;-74
2023/01/16 09:04:30;;;;;;;;;;;;;;;2.90;100.00;97480.69;4236445;33;19946;-75
2023/01/16 09:06:56;;;;;;;;;;;;;;;2.69;100.00;97474.19;4235773;33;20375;-75
2023/01/16 09:09:22;;;;;;;;;;;;;;;2.92;100.00;97467.16;4236483;33;19939;-74
2023/01/16 09:14:40;;;;;;;;;;;;;;;2.56;100.00;97469.16;4231168;33;20138;-75
2023/01/16 09:17:07;;;;;;;;;;;;;;;2.63;100.00;97466.34;4236768;33;19972;-75
2023/01/16 09:19:34;;;;;;;;;;;;;;;2.70;100.00;97469.69;4236796;33;20387;-75
2023/01/16 09:22:00;;;;;;;;;;;;;;;2.76;100.00;97468.75;4235305;33;19989;-74
2023/01/16 09:24:26;;;;;;;;;;;;;;;2.71;100.00;97458.81;4235682;33;20463;-73
2023/01/16 09:26:53;;;;;;;;;;;;;;;2.91;100.00;97449.59;4236650;33;20307;-73
2023/01/16 09:29:19;;;;;;;;;;;;;;;3.01;100.00;97443.66;4236600;33;19979;-74
2023/01/16 09:31:45;;;;;;;;;;;;;;;3.13;100.00;97441.72;4242179;33;20321;-73
2023/01/16 09:34:11;;;;;;;;;;;;;;;3.17;100.00;97442.06;4250051;33;19979;-73
2023/01/16 09:36:38;;;;;;;;;;;;;;;3.24;100.00;97442.72;4266958;33;20011;-72
2023/01/16 09:39:04;;;;;;;;;;;;;;;3.53;100.00;97434.66;4253317;33;19957;-73
2023/01/16 09:44:21;;;;;;;;;;;;;;;2.93;100.00;97436.84;4259455;33;19959;-73
2023/01/16 09:46:50;;;;;;;;;;;;;;;2.82;100.00;97441.19;4270861;33;19958;-74
2023/01/16 09:49:28;;;;;;;;;;;;;;;3.21;100.00;97437.88;4254520;33;19942;-74
2023/01/16 10:00:20;;;;;;;;;;;;;;;3.19;100.00;97435.47;4254278;33;19953;-73
2023/01/16 10:02:47;;;;;;;;;;;;;;;3.04;100.00;97438.66;4254095;33;19942;-73
2023/01/16 10:05:13;;;;;;;;;;;;;;;3.42;100.00;97439.81;4252248;33;19946;-72
2023/01/16 10:07:49;;;;;;;;;;;;;;;3.30;100.00;97435.62;4253622;33;20108;-73
2023/01/16 10:10:18;;;;;;;;;;;;;;;3.45;100.00;97422.56;4225829;34;20387;-73
2023/01/16 10:12:50;;;;;;;;;;;;;;;3.38;100.00;97427.22;4224317;34;19959;-73
2023/01/16 10:15:16;;;;;;;;;;;;;;;3.28;100.00;97423.34;4224501;34;19942;-73
2023/01/16 10:17:45;;;;;;;;;;;;;;;3.24;100.00;97421.44;4239854;33;19958;-73
2023/01/16 10:20:29;;;;;;;;;;;;;;;3.56;100.00;97423.53;4246176;33;19946;-73
2023/01/16 10:22:56;;;;;;;;;;;;;;;3.54;100.00;97413.12;4252775;33;20679;-73
2023/01/16 10:25:22;;;;;;;;;;;;;;;3.56;100.00;97403.03;4253232;33;19945;-73
2023/01/16 10:28:02;;;;;;;;;;;;;;;3.40;100.00;97401.19;4253706;33;19950;-73
2023/01/16 10:30:44;;;;;;;;;;;;;;;3.55;100.00;97395.28;4252628;33;19992;-73
2023/01/16 10:33:30;;;;;;;;;;;;;;;3.68;100.00;97383.50;4251439;33;20125;-74
2023/01/16 10:35:58;;;;;;;;;;;;;;;3.64;100.00;97376.00;4252089;33;20117;-74
2023/01/16 10:38:43;;;;;;;;;;;;;;;3.59;100.00;97375.94;4250511;33;19951;-73
2023/01/16 10:49:41;;;;;;;;;;;;;;;3.52;100.00;97348.66;4263409;33;19963;-73
2023/01/16 10:52:07;;;;;;;;;;;;;;;3.75;100.00;97346.84;4264476;33;19980;-73
2023/01/16 10:54:33;;;;;;;;;;;;;;;4.01;100.00;97350.63;4264711;33;19942;-73
2023/01/16 10:57:03;;;;;;;;;;;;;;;4.20;100.00;97348.47;4256970;33;20044;-74
2023/01/16 10:59:30;;;;;;;;;;;;;;;3.96;100.00;97340.72;4262537;33;19971;-73
2023/01/16 11:01:58;;;;;;;;;;;;;;;3.94;100.00;97332.19;4263376;33;19961;-73
2023/01/16 11:04:32;;;;;;;;;;;;;;;4.15;100.00;97319.91;4266337;33;19988;-73
2023/01/16 11:07:18;;;;;;;;;;;;;;;4.13;100.00;97315.88;4267137;33;19993;-73
2023/01/16 11:09:47;;;;;;;;;;;;;;;3.84;100.00;97313.41;4258908;33;19967;-74
2023/01/16 11:18:31;;;;;;;;;;;;;;;4.29;100.00;97293.69;4265774;33;19960;-72
2023/01/16 11:21:00;;;;;;;;;;;;;;;4.58;100.00;97285.41;4249857;33;20076;-73
2023/01/16 11:23:35;;;;;;;;;;;;;;;4.79;100.00;97270.38;4255907;33;19968;-73
2023/01/16 11:26:09;;;;;;;;;;;;;;;4.63;100.00;97263.31;4253279;33;19969;-72
2023/01/16 11:28:44;;;;;;;;;;;;;;;4.64;100.00;97246.25;4254174;33;19958;-74
2023/01/16 11:31:13;;;;;;;;;;;;;;;5.05;100.00;97227.88;4272521;33;19963;-74
2023/01/16 11:33:45;;;;;;;;;;;;;;;5.51;100.00;97227.31;4267095;33;19984;-74
2023/01/16 11:36:22;;;;;;;;;;;;;;;5.47;100.00;97227.00;4227594;33;20667;-74
2023/01/16 11:38:49;;;;;;;;;;;;;;;5.33;100.00;97232.03;4234290;33;20044;-74
2023/01/16 11:41:20;;;;;;;;;;;;;;;5.21;100.00;97229.56;4221549;34;20037;-75
2023/01/16 11:46:37;;;;;;;;;;;;;;;4.70;100.00;97223.91;4197230;34;20250;-73
2023/01/16 11:49:04;;;;;;;;;;;;;;;4.79;100.00;97222.38;4180828;34;20330;-74
2023/01/16 11:51:32;;;;;;;;;;;;;;;4.78;100.00;97219.97;4172437;34;19981;-74
2023/01/16 11:54:00;;;;;;;;;;;;;;;5.00;100.00;97222.50;4173224;34;20031;-74
2023/01/16 11:56:38;;;;;;;;;;;;;;;5.23;100.00;97221.28;4152273;34;20340;-73
2023/01/16 11:59:18;;;;;;;;;;;;;;;4.85;100.00;97209.88;4151407;34;19958;-74
2023/01/16 12:04:38;;;;;;;;;;;;;;;4.57;100.00;97203.81;4153583;34;20299;-74
2023/01/16 12:07:19;;;;;;;;;;;;;;;4.63;100.00;97192.16;4159364;34;19968;-73
2023/01/16 12:09:57;;;;;;;;;;;;;;;4.76;100.00;97187.44;4178175;34;20065;-74
2023/01/16 12:15:22;;;;;;;;;;;;;;;4.79;100.00;97168.25;4178490;34;19948;-79
2023/01/16 12:17:55;;;;;;;;;;;;;;;4.75;100.00;97159.16;4182491;34;19979;-77
2023/01/16 12:20:34;;;;;;;;;;;;;;;5.16;100.00;97156.72;4182567;34;19940;-78
2023/01/16 12:23:09;;;;;;;;;;;;;;;5.15;100.00;97149.75;4183671;34;20411;-78
2023/01/16 12:25:44;;;;;;;;;;;;;;;5.27;100.00;97148.47;4218895;33;19947;-77
2023/01/16 12:28:29;;;;;;;;;;;;;;;5.20;100.00;97141.75;4245093;33;19966;-76
2023/01/16 12:31:29;;;;;;;;;;;;;;;5.37;100.00;97139.69;4238738;33;19957;-76
2023/01/16 12:34:13;;;;;;;;;;;;;;;5.55;100.00;97137.59;4237069;33;19966;-77
2023/01/16 12:36:40;;;;;;;;;;;;;;;5.33;100.00;97130.63;4262324;33;19942;-76
2023/01/16 12:39:20;;;;;;;;;;;;;;;5.71;100.00;97125.91;4264938;33;20225;-76
2023/01/16 12:45:05;;;;;;;;;;;;;;;6.09;100.00;97115.81;4265813;33;19967;-78
2023/01/16 12:47:31;;;;;;;;;;;;;;;5.98;100.00;97115.03;4264790;33;19960;-77
2023/01/16 12:50:16;;;;;;;;;;;;;;;5.32;100.00;97118.34;4235977;33;19954;-78
2023/01/16 12:53:01;;;;;;;;;;;;;;;5.14;100.00;97110.78;4237389;33;19954;-77
2023/01/16 12:58:36;;;;;;;;;;;;;;;4.79;100.00;97093.59;4191810;34;19952;-79
2023/01/16 13:01:23;;;;;;;;;;;;;;;4.87;100.00;97098.44;4195074;34;20900;-79
2023/01/16 13:03:50;;;;;;;;;;;;;;;5.15;100.00;97096.41;4194523;34;19951;-78
2023/01/16 13:06:22;;;;;;;;;;;;;;;4.55;100.00;97099.34;4193970;34;19958;-78
2023/01/16 13:09:09;;;;;;;;;;;;;;;4.67;100.00;97097.25;4182530;34;20412;-78
2023/01/16 13:14:24;;;;;;;;;;;;;;;4.58;100.00;97090.81;4196482;34;19965;-79
2023/01/16 13:17:00;;;;;;;;;;;;;;;4.35;100.00;97087.47;4195369;34;19969;-79
2023/01/16 13:19:27;;;;;;;;;;;;;;;4.34;100.00;97088.53;4169808;34;19940;-79
2023/01/16 13:21:56;;;;;;;;;;;;;;;3.80;100.00;97080.69;4181266;34;19952;-79
2023/01/16 13:24:28;;;;;;;;;;;;;;;3.98;100.00;97090.94;4185163;34;19940;-78
2023/01/16 13:26:57;;;;;;;;;;;;;;;3.86;100.00;97071.69;4192361;34;19951;-78
2023/01/16 13:29:28;;;;;;;;;;;;;;;3.77;100.00;97078.53;4196626;34;19986;-80
2023/01/16 13:31:57;;;;;;;;;;;;;;;3.80;100.00;97067.37;4197493;34;20294;-80
2023/01/16 13:34:23;;;;;;;;;;;;;;;4.08;100.00;97063.59;4199352;34;20309;-79
2023/01/16 13:37:08;;;;;;;;;;;;;;;4.18;100.00;97057.53;4199047;34;19947;-78
2023/01/16 13:39:37;;;;;;;;;;;;;;;4.01;100.00;97063.00;4197569;34;20342;-77
2023/01/16 13:42:06;;;;;;;;;;;;;;;3.99;100.00;97060.59;4198806;34;19959;-79
2023/01/16 13:47:28;;;;;;;;;;;;;;;4.20;100.00;97050.09;4198509;34;20064;-79
2023/01/16 13:50:00;;;;;;;;;;;;;;;4.43;100.00;97040.09;4198564;34;19951;-79
2023/01/16 13:52:28;;;;;;;;;;;;;;;4.21;100.00;97041.03;4198595;34;19955;-79
2023/01/16 13:54:56;;;;;;;;;;;;;;;4.12;100.00;97038.06;4211323;34;19965;-78
2023/01/16 13:57:24;;;;;;;;;;;;;;;4.27;100.00;97028.53;4228158;34;19954;-79
2023/01/16 13:59:54;;;;;;;;;;;;;;;4.27;100.00;97024.00;4217649;34;19965;-80
2023/01/16 14:02:22;;;;;;;;;;;;;;;4.23;100.00;97022.13;4225349;34;19978;-79
2023/01/16 14:05:11;;;;;;;;;;;;;;;4.31;100.00;97021.66;4225594;34;19995;-78
2023/01/16 14:10:42;;;;;;;;;;;;;;;4.24;100.00;97021.87;4213911;34;19943;-79
2023/01/16 14:13:29;;;;;;;;;;;;;;;4.50;100.00;97006.00;4215613;34;19969;-79
2023/01/16 14:18:47;;;;;;;;;;;;;;;4.25;100.00;97004.03;4213927;34;19951;-77
2023/01/16 14:21:21;;;;;;;;;;;;;;;4.14;100.00;96997.84;4213428;34;19943;-76
2023/01/16 14:24:00;;;;;;;;;;;;;;;4.10;100.00;97005.56;4211975;34;19960;-78
2023/01/16 14:26:34;;;;;;;;;;;;;;;4.31;100.00;97003.00;4195244;34;19948;-79
2023/01/16 14:29:03;;;;;;;;;;;;;;;4.34;100.00;96987.31;4194557;34;19948;-78
2023/01/16 14:31:37;;;;;;;;;;;;;;;4.30;100.00;96986.19;4208228;34;20071;-77
2023/01/16 14:34:03;;;;;;;;;;;;;;;4.09;100.00;96984.50;4211431;34;19951;-77
2023/01/16 14:36:32;;;;;;;;;;;;;;;4.03;100.00;96990.84;4213031;34;19959;-77
2023/01/16 14:38:59;;;;;;;;;;;;;;;4.33;100.00;96985.69;4213854;34;19960;-77
2023/01/16 14:56:10;;;;;;;;;;;;;;;4.16;100.00;96969.06;4190728;34;19944;-77
2023/01/16 14:58:52;;;;;;;;;;;;;;;4.23;100.00;96964.34;4204875;34;19998;-78
2023/01/16 15:06:48;;;;;;;;;;;;;;;3.83;100.00;96944.41;4161809;34;19960;-77
2023/01/16 15:09:17;;;;;;;;;;;;;;;3.83;100.00;96944.41;4165610;34;19944;-81
2023/01/16 15:11:51;;;;;;;;;;;;;;;3.89;100.00;96946.03;4158248;34;19954;-78
2023/01/16 15:14:34;;;;;;;;;;;;;;;3.67;100.00;96950.69;4159127;34;19945;-77
2023/01/16 15:23:17;;;;;;;;;;;;;;;3.68;100.00;96928.34;4143218;34;19974;-77
2023/01/16 15:25:52;;;;;;;;;;;;;;;3.48;100.00;96929.81;4199537;34;20290;-76
2023/01/16 15:28:43;;;;;;;;;;;;;;;3.41;100.00;96922.03;4199241;34;19948;-77
2023/01/16 15:31:13;;;;;;;;;;;;;;;3.58;100.00;96921.87;4187334;34;19939;-77
2023/01/16 15:33:47;;;;;;;;;;;;;;;3.41;100.00;96916.69;4226817;34;20282;-77
2023/01/16 15:36:25;;;;;;;;;;;;;;;3.50;100.00;96909.06;4227072;34;20106;-76
2023/01/16 15:38:51;;;;;;;;;;;;;;;3.44;100.00;96910.06;4227333;34;19950;-77
2023/01/16 15:41:19;;;;;;;;;;;;;;;3.62;100.00;96907.03;4225939;33;20280;-76
2023/01/16 15:46:50;;;;;;;;;;;;;;;3.66;100.00;96895.88;4227115;34;19943;-77
2023/01/16 15:49:25;;;;;;;;;;;;;;;3.41;100.00;96894.62;4225981;34;19982;-77
2023/01/16 15:51:52;;;;;;;;;;;;;;;3.39;100.00;96886.09;4219641;34;19955;-76
2023/01/16 15:54:19;;;;;;;;;;;;;;;3.26;100.00;96882.81;4211981;34;19954;-76
2023/01/16 15:56:47;;;;;;;;;;;;;;;3.28;100.00;96879.91;4210767;34;19959;-77
2023/01/16 15:59:20;;;;;;;;;;;;;;;3.03;100.00;96883.16;4211161;34;19943;-77
2023/01/16 16:01:46;;;;;;;;;;;;;;;3.34;100.00;96878.09;4212410;34;19953;-76
2023/01/16 16:04:13;;;;;;;;;;;;;;;2.91;100.00;96865.53;4211776;34;19988;-78
2023/01/16 16:06:40;;;;;;;;;;;;;;;2.94;100.00;96874.06;4211594;34;19943;-77
2023/01/16 16:09:13;;;;;;;;;;;;;;;3.21;100.00;96868.69;4212556;34;19968;-76
2023/01/16 16:11:52;;;;;;;;;;;;;;;3.20;100.00;96861.75;4212536;34;19955;-77
2023/01/16 16:20:29;;;;;;;;;;;;;;;3.20;100.00;96867.09;4210768;34;20003;-77
2023/01/16 16:23:16;;;;;;;;;;;;;;;3.50;100.00;96866.50;4212587;34;19983;-76
2023/01/16 16:25:46;;;;;;;;;;;;;;;3.39;100.00;96859.50;4209455;34;19943;-76
2023/01/16 16:28:17;;;;;;;;;;;;;;;3.39;100.00;96859.50;4221932;34;19980;-77
2023/01/16 16:30:44;;;;;;;;;;;;;;;3.35;100.00;96858.41;4224648;34;19969;-77
2023/01/16 16:33:14;;;;;;;;;;;;;;;3.30;100.00;96850.41;4224674;34;19947;-76
2023/01/16 16:35:46;;;;;;;;;;;;;;;3.37;100.00;96851.78;4225659;34;19953;-76
2023/01/16 16:38:38;;;;;;;;;;;;;;;3.51;100.00;96846.81;4213570;34;19962;-77
2023/01/16 16:41:07;;;;;;;;;;;;;;;3.48;100.00;96836.69;4223424;34;19951;-79
2023/01/16 16:43:51;;;;;;;;;;;;;;;3.67;100.00;96822.94;4223415;34;19943;-76
2023/01/16 16:46:24;;;;;;;;;;;;;;;3.54;100.00;96825.00;4226235;34;20370;-78
2023/01/16 16:48:50;;;;;;;;;;;;;;;3.57;100.00;96819.16;4227216;34;19992;-77
2023/01/16 16:51:21;;;;;;;;;;;;;;;3.87;100.00;96812.38;4213771;34;19951;-77
2023/01/16 16:53:51;;;;;;;;;;;;;;;3.85;100.00;96803.84;4215746;34;19958;-78